Acton, MA

1:59 AM EDT on September 30, 2014 (GMT -0400)
Long Lake | Change Station
CLOSE
Current Station
Personal Weather Station
Location: Littleton, MA
Elevation: 272 ft
Nearby Weather Stations

Elev 272 ft 42.53 °N, 71.47 °W | Updated 9 seconds ago

Overcast
Overcast
55.2 °F
Feels Like 55.2 °F
N
1.0
Wind Variable Wind from North

Today
High -- | Low -- °F
--% Chance of Precip.
Yesterday
High -- | Low -- °F
Precip. -- in
6:41 AM 6:28 PM
Waxing Crescent, 33% visible
Pressure 30.04 in
Visibility 6.0 miles
Clouds Overcast 700 ft
Dew Point 55 °F
Humidity 99%
Rainfall -999.00 in
Snow Depth Not available.
UV 0 out of 12
Pollen 2.00 out of 12
Air Quality Not available.
Flu Activity Not available.
METAR KBED 300456Z 05006KT 6SM BR OVC007 13/13 A3000 RMK AO2 CIG 005V011 SLP172 T01280128 402500128 PNO $

More Conditions Fewer Conditions

Pressure 30.04 in
Visibility 6.0 miles
Clouds Overcast 700 ft
Dew Point 55 °F
Humidity 99%
Rainfall -999.00 in
Snow Depth Not available.
UV 0 out of 12
Pollen 2.00 out of 12
Air Quality Not available.
Flu Activity Not available.
METAR KBED 300456Z 05006KT 6SM BR OVC007 13/13 A3000 RMK AO2 CIG 005V011 SLP172 T01280128 402500128 PNO $

More Conditions Fewer Conditions

10-Day Weather Forecast

Almanac

Astronomy

Sep. 30, 2014 Rise Set
Actual Time 6:41 AM EDT 6:28 PM EDT
Civil Twilight 6:13 AM EDT 6:56 PM EDT
Nautical Twilight 5:40 AM EDT 7:29 PM EDT
Astronomical Twilight 5:07 AM EDT 8:02 PM EDT
Moon 12:52 PM EDT 10:50 PM EDT
Length of Visible Light 12h 43m
Length of Day
11h 47m
Tomorrow will be 2m 51s shorter.
Waxing Crescent, 33% of the Moon is Illuminated
Today
Waxing Crescent
Oct 1
First Quarter
Oct 8
Full
Oct 15
Last Quarter
Oct 23
New

Today's Extremes

State Highs State Lows

Community

WunderPhotos

Upload Photos

1,757,577 photos uploaded!

Nearby

Air Quality

  Air Quality AQ Index Pollutant
Tuesday Good
PM2.5
Tuesday Good
OZONE

Snow Depth

Station Depth Elevation
No new snow has been reported.

Earthquake Activity

City Distance Mag. Time & Date
No recent earthquake activity has been reported nearby.
Minimum magnitude displayed is 2.5.

Coastal Water Temperatures

Place Temperature
Boston, MA 64.0 °F
Providence, RI 68.0 °F
Fall River, MA 69.1 °F
Conimicut Light, RI 68.0 °F

Nearby Weather Stations